createdAt,value
2022-08-09T00:00:04.400Z,0.70
2022-08-09T00:02:34.041Z,1.05
2022-08-09T00:06:16.585Z,0.77
2022-08-09T00:07:48.312Z,0.70
2022-08-09T00:10:21.007Z,1.33
2022-08-09T00:12:52.272Z,0.90
2022-08-09T00:15:26.317Z,0.90
2022-08-09T00:18:10.731Z,1.00
2022-08-09T00:20:41.369Z,0.82
2022-08-09T00:23:55.577Z,0.80
2022-08-09T00:25:55.312Z,0.80
2022-08-09T00:28:23.376Z,0.80
2022-08-09T00:30:54.058Z,0.60
2022-08-09T00:33:20.475Z,0.70
2022-08-09T00:36:00.874Z,0.57
2022-08-09T00:38:27.983Z,0.85
2022-08-09T00:40:55.238Z,0.80
2022-08-09T00:44:17.149Z,0.60
2022-08-09T00:46:11.201Z,0.70
2022-08-09T00:48:56.218Z,0.63
2022-08-09T00:51:23.070Z,0.90
2022-08-09T00:53:53.201Z,0.60
2022-08-09T00:56:19.664Z,0.77
2022-08-09T00:58:48.971Z,0.60
2022-08-09T01:01:20.726Z,0.80
2022-08-09T01:03:56.804Z,0.70
2022-08-09T01:06:54.419Z,0.77
2022-08-09T01:09:21.293Z,0.65
2022-08-09T01:12:00.872Z,0.70
2022-08-09T01:14:41.446Z,0.70
2022-08-09T01:17:17.989Z,1.55
2022-08-09T01:19:57.051Z,0.80
2022-08-09T01:22:52.092Z,0.95
2022-08-09T01:26:00.371Z,0.70
2022-08-09T01:28:27.682Z,1.08
2022-08-09T01:30:58.962Z,0.75
2022-08-09T01:33:28.057Z,0.60
2022-08-09T01:36:08.829Z,0.85
2022-08-09T01:38:38.631Z,0.85
2022-08-09T01:41:15.025Z,0.75
2022-08-09T01:43:52.521Z,1.10
2022-08-09T01:46:25.028Z,0.70
2022-08-09T01:48:59.678Z,0.70
2022-08-09T01:51:27.939Z,0.68
2022-08-09T01:54:01.246Z,0.60
2022-08-09T01:56:30.538Z,0.60
2022-08-09T01:59:01.556Z,0.70
2022-08-09T02:01:57.680Z,0.65
2022-08-09T02:04:18.191Z,0.68
2022-08-09T02:07:04.316Z,0.80
2022-08-09T02:09:41.874Z,0.50
2022-08-09T02:12:13.364Z,0.60
2022-08-09T02:14:51.741Z,0.70
2022-08-09T02:18:01.630Z,0.88
2022-08-09T02:20:10.342Z,0.90
2022-08-09T02:22:46.442Z,0.90
2022-08-09T02:25:19.404Z,0.93
2022-08-09T02:28:00.510Z,0.82
2022-08-09T02:30:37.590Z,0.88
2022-08-09T02:33:08.023Z,0.75
2022-08-09T02:36:01.290Z,0.63
2022-08-09T02:38:34.868Z,1.00
2022-08-09T02:41:13.182Z,1.00
2022-08-09T02:43:54.493Z,0.88
2022-08-09T02:46:27.286Z,0.60
2022-08-09T02:48:56.736Z,0.77
2022-08-09T02:51:26.569Z,0.85
2022-08-09T02:54:00.429Z,0.88
2022-08-09T02:58:56.093Z,0.70
2022-08-09T03:01:29.708Z,0.90
2022-08-09T03:04:19.306Z,0.70
2022-08-09T03:06:48.765Z,0.88
2022-08-09T03:09:17.606Z,1.40
2022-08-09T03:12:05.372Z,0.70
2022-08-09T03:14:32.840Z,0.80
2022-08-09T03:17:01.527Z,0.77
2022-08-09T03:19:52.487Z,1.00
2022-08-09T03:22:25.121Z,0.90
2022-08-09T03:25:05.842Z,1.05
2022-08-09T03:27:45.336Z,0.80
2022-08-09T03:30:13.533Z,0.73
2022-08-09T03:32:41.574Z,1.17
2022-08-09T03:35:14.837Z,1.52
2022-08-09T03:37:56.127Z,1.20
2022-08-09T03:40:24.952Z,1.17
2022-08-09T03:42:51.565Z,1.30
2022-08-09T03:46:04.228Z,1.05
2022-08-09T03:48:04.777Z,1.00
2022-08-09T03:50:34.889Z,1.10
2022-08-09T03:53:06.123Z,0.98
2022-08-09T03:55:40.817Z,1.08
2022-08-09T03:58:14.917Z,0.85
2022-08-09T04:00:44.247Z,0.90
2022-08-09T04:03:24.856Z,1.00
2022-08-09T04:05:58.660Z,0.82
2022-08-09T04:08:28.910Z,0.77
2022-08-09T04:10:56.070Z,1.10
2022-08-09T04:14:37.008Z,0.93
2022-08-09T04:16:19.509Z,0.68
2022-08-09T04:18:47.706Z,0.98
2022-08-09T04:21:15.821Z,0.88
2022-08-09T04:23:53.967Z,0.98
2022-08-09T04:26:24.173Z,3.08
2022-08-09T04:28:50.640Z,0.70
2022-08-09T04:31:17.095Z,0.82
2022-08-09T04:33:51.539Z,0.90
2022-08-09T04:36:19.921Z,0.73
2022-08-09T04:38:46.446Z,0.65
2022-08-09T04:41:15.090Z,0.63
2022-08-09T04:43:46.669Z,0.63
2022-08-09T04:46:36.564Z,0.70
2022-08-09T04:49:15.384Z,0.80
2022-08-09T04:51:42.203Z,1.20
2022-08-09T04:54:08.899Z,0.75
2022-08-09T04:56:37.047Z,0.90
2022-08-09T04:59:12.978Z,0.65
2022-08-09T05:01:42.585Z,0.80
2022-08-09T05:04:09.221Z,0.65
2022-08-09T05:06:36.905Z,0.70
2022-08-09T05:09:03.679Z,0.60
2022-08-09T05:11:32.399Z,0.60
2022-08-09T05:14:05.831Z,0.68
2022-08-09T05:16:58.225Z,0.60
2022-08-09T05:19:26.226Z,0.90
2022-08-09T05:24:25.148Z,0.75
2022-08-09T05:26:52.978Z,0.88
2022-08-09T05:29:22.092Z,1.10
2022-08-09T05:31:57.737Z,0.80
2022-08-09T05:34:32.848Z,0.93
2022-08-09T05:37:06.385Z,1.17
2022-08-09T05:39:42.382Z,0.90
2022-08-09T05:42:17.566Z,1.35
2022-08-09T05:44:52.921Z,1.10
2022-08-09T05:47:24.157Z,1.58
2022-08-09T05:50:25.632Z,1.50
2022-08-09T05:52:43.841Z,1.80
2022-08-09T05:55:18.153Z,1.67
2022-08-09T05:57:55.759Z,1.40
2022-08-09T06:00:28.642Z,1.95
2022-08-09T06:03:00.093Z,2.20
2022-08-09T06:05:57.631Z,2.60
2022-08-09T06:08:19.283Z,1.92
2022-08-09T06:10:52.123Z,1.40
2022-08-09T06:13:20.517Z,2.47
2022-08-09T06:15:52.387Z,2.17
2022-08-09T06:18:24.042Z,2.63
2022-08-09T06:20:57.707Z,2.42
2022-08-09T06:23:58.662Z,2.13
2022-08-09T06:26:20.128Z,2.03
2022-08-09T06:29:00.481Z,2.28
2022-08-09T06:31:31.290Z,2.05
2022-08-09T06:33:58.752Z,2.53
2022-08-09T06:36:29.757Z,2.40
2022-08-09T06:38:57.577Z,2.33
2022-08-09T06:41:39.573Z,2.75
2022-08-09T06:44:14.259Z,1.77
2022-08-09T06:46:45.482Z,2.10
2022-08-09T06:49:11.896Z,1.80
2022-08-09T06:51:39.983Z,1.75
2022-08-09T06:54:06.630Z,2.45
2022-08-09T06:56:38.914Z,1.60
2022-08-09T07:00:55.468Z,2.13
2022-08-09T07:02:03.894Z,2.30
2022-08-09T07:04:31.743Z,1.45
2022-08-09T07:07:00.638Z,1.70
2022-08-09T07:09:54.991Z,1.33
2022-08-09T07:12:18.126Z,1.05
2022-08-09T07:14:45.935Z,1.70
2022-08-09T07:17:18.601Z,1.80
2022-08-09T07:19:45.004Z,2.70
2022-08-09T07:22:14.790Z,2.25
2022-08-09T07:24:49.242Z,1.98
2022-08-09T07:27:27.273Z,2.00
2022-08-09T07:32:32.189Z,1.92
2022-08-09T07:35:00.896Z,1.95
2022-08-09T07:37:29.374Z,2.00
2022-08-09T07:39:56.056Z,2.78
2022-08-09T07:42:26.092Z,1.60
2022-08-09T07:45:02.581Z,2.13
2022-08-09T07:47:33.377Z,1.80
2022-08-09T07:50:16.202Z,1.58
2022-08-09T07:52:43.643Z,1.50
2022-08-09T07:55:13.892Z,1.00
2022-08-09T07:57:46.545Z,1.25
2022-08-09T08:00:20.499Z,1.20
2022-08-09T08:03:04.865Z,1.10
2022-08-09T08:05:54.136Z,1.05
2022-08-09T08:09:01.314Z,1.08
2022-08-09T08:12:09.357Z,1.00
2022-08-09T08:13:56.313Z,1.10
2022-08-09T08:16:30.017Z,0.70
2022-08-09T08:18:58.749Z,0.80
2022-08-09T08:21:25.195Z,0.70
2022-08-09T08:23:55.873Z,0.60
2022-08-09T08:26:41.716Z,0.57
2022-08-09T08:29:09.382Z,0.50
2022-08-09T08:32:02.400Z,0.90
2022-08-09T08:34:25.584Z,0.57
2022-08-09T08:36:52.523Z,0.40
2022-08-09T08:39:19.065Z,0.38
2022-08-09T08:41:51.440Z,0.30
2022-08-09T08:44:27.269Z,0.40
2022-08-09T08:46:59.498Z,0.30
2022-08-09T08:49:38.443Z,0.50
2022-08-09T08:52:48.584Z,0.52
2022-08-09T08:55:03.968Z,0.30
2022-08-09T08:57:34.831Z,0.35
2022-08-09T09:00:02.368Z,0.55
2022-08-09T09:02:35.398Z,0.25
2022-08-09T09:05:05.854Z,0.65
2022-08-09T09:07:37.397Z,0.60
2022-08-09T09:10:10.919Z,0.32
2022-08-09T09:12:38.220Z,0.20
2022-08-09T09:15:06.468Z,0.43
2022-08-09T09:17:49.446Z,0.40
2022-08-09T09:20:20.696Z,0.30
2022-08-09T09:23:01.874Z,0.20
2022-08-09T09:26:05.097Z,0.22
2022-08-09T09:29:02.843Z,0.35
2022-08-09T09:31:17.522Z,0.35
2022-08-09T09:34:14.639Z,0.30
2022-08-09T09:36:46.707Z,0.85
2022-08-09T09:39:22.922Z,0.32
2022-08-09T09:41:51.309Z,0.75
2022-08-09T09:44:31.507Z,0.50
2022-08-09T09:47:11.648Z,0.40
2022-08-09T09:50:06.993Z,0.40
2022-08-09T09:52:36.927Z,0.70
2022-08-09T09:55:28.778Z,0.43
2022-08-09T09:58:19.287Z,0.40
2022-08-09T10:00:54.247Z,0.30
2022-08-09T10:03:57.043Z,0.32
2022-08-09T10:06:42.620Z,0.30
2022-08-09T10:09:23.276Z,0.40
2022-08-09T10:12:11.704Z,0.40
2022-08-09T10:14:47.705Z,0.40
2022-08-09T10:17:40.102Z,0.40
2022-08-09T10:20:04.247Z,0.40
2022-08-09T10:22:33.604Z,0.70
2022-08-09T10:25:03.363Z,0.68
2022-08-09T10:27:38.447Z,0.30
2022-08-09T10:30:44.000Z,0.60
2022-08-09T10:32:56.104Z,0.75
2022-08-09T10:35:23.553Z,0.47
2022-08-09T10:37:53.393Z,1.23
2022-08-09T10:40:35.064Z,0.90
2022-08-09T10:45:35.626Z,0.45
2022-08-09T10:48:30.189Z,0.60
2022-08-09T10:51:17.657Z,0.75
2022-08-09T10:53:59.755Z,0.65
2022-08-09T10:56:33.799Z,0.50
2022-08-09T10:59:23.299Z,0.52
2022-08-09T11:03:11.675Z,0.90
2022-08-09T11:04:37.668Z,0.70
2022-08-09T11:07:27.154Z,0.63
2022-08-09T11:10:13.712Z,0.70
2022-08-09T11:12:45.028Z,0.65
2022-08-09T11:15:19.252Z,0.73
2022-08-09T11:17:47.982Z,0.52
2022-08-09T11:20:38.688Z,0.77
2022-08-09T11:23:09.982Z,0.45
2022-08-09T11:25:46.042Z,0.70
2022-08-09T11:28:38.692Z,0.57
2022-08-09T11:31:49.213Z,0.47
2022-08-09T11:34:20.956Z,0.70
2022-08-09T11:36:48.220Z,0.40
2022-08-09T11:39:15.386Z,0.80
2022-08-09T11:41:43.224Z,0.75
2022-08-09T11:44:11.901Z,0.63
2022-08-09T11:46:57.855Z,0.40
2022-08-09T11:50:53.735Z,0.40
2022-08-09T11:53:15.750Z,0.50
2022-08-09T11:55:52.163Z,0.80
2022-08-09T11:58:30.453Z,0.50
2022-08-09T12:01:08.551Z,0.82
2022-08-09T12:03:55.679Z,0.90
2022-08-09T12:06:26.846Z,0.30
2022-08-09T12:09:01.100Z,0.85
2022-08-09T12:11:29.089Z,0.57
2022-08-09T12:14:07.102Z,0.47
2022-08-09T12:16:40.639Z,0.40
2022-08-09T12:19:12.192Z,0.70
2022-08-09T12:21:48.802Z,0.60
2022-08-09T12:24:23.823Z,0.70
2022-08-09T12:28:58.818Z,0.70
2022-08-09T12:29:52.311Z,0.70
2022-08-09T12:32:27.606Z,0.73
2022-08-09T12:35:03.170Z,0.60
2022-08-09T12:37:50.196Z,0.50
2022-08-09T12:40:18.865Z,0.50
2022-08-09T12:42:46.467Z,0.90
2022-08-09T12:45:33.764Z,0.73
2022-08-09T12:48:10.789Z,0.50
2022-08-09T12:50:48.889Z,0.68
2022-08-09T12:53:36.677Z,0.50
2022-08-09T12:56:39.313Z,0.40
2022-08-09T12:59:13.817Z,0.57
2022-08-09T13:01:49.681Z,0.50
2022-08-09T13:04:37.017Z,0.75
2022-08-09T13:07:19.534Z,0.60
2022-08-09T13:09:55.051Z,0.63
2022-08-09T13:12:28.047Z,0.55
2022-08-09T13:15:07.161Z,0.60
2022-08-09T13:18:03.108Z,0.77
2022-08-09T13:20:37.363Z,0.38
2022-08-09T13:24:16.422Z,0.30
2022-08-09T13:26:04.051Z,0.57
2022-08-09T13:28:34.486Z,0.60
2022-08-09T13:32:13.347Z,0.40
2022-08-09T13:33:56.700Z,0.40
2022-08-09T13:36:41.279Z,0.40
2022-08-09T13:41:55.413Z,1.02
2022-08-09T13:42:05.579Z,0.68
2022-08-09T13:44:42.068Z,1.83
2022-08-09T13:47:27.186Z,0.88
2022-08-09T13:50:01.241Z,0.65
2022-08-09T13:52:33.371Z,0.70
2022-08-09T13:55:04.636Z,0.50
2022-08-09T13:57:47.345Z,0.90
2022-08-09T14:00:23.004Z,0.77
2022-08-09T14:03:57.857Z,0.90
2022-08-09T14:06:00.570Z,0.60
2022-08-09T14:08:30.651Z,1.00
2022-08-09T14:10:59.645Z,0.88
2022-08-09T14:14:24.515Z,0.52
2022-08-09T14:16:19.831Z,0.38
2022-08-09T14:18:58.119Z,0.47
2022-08-09T14:21:26.986Z,0.70
2022-08-09T14:23:57.283Z,0.50
2022-08-09T14:26:32.865Z,0.80
2022-08-09T14:29:03.022Z,0.68
2022-08-09T14:31:49.622Z,1.20
2022-08-09T14:34:17.511Z,1.00
2022-08-09T14:36:54.103Z,0.80
2022-08-09T14:39:20.526Z,0.82
2022-08-09T14:42:06.963Z,0.70
2022-08-09T14:44:48.187Z,0.60
2022-08-09T14:47:41.201Z,0.50
2022-08-09T14:50:02.741Z,1.00
2022-08-09T14:52:29.375Z,0.60
2022-08-09T14:54:55.879Z,0.40
2022-08-09T14:57:22.637Z,0.52
2022-08-09T14:59:58.578Z,1.10
2022-08-09T15:02:25.035Z,1.15
2022-08-09T15:04:51.547Z,0.60
2022-08-09T15:07:17.973Z,1.20
2022-08-09T15:10:03.571Z,0.90
2022-08-09T15:12:32.428Z,2.13
2022-08-09T15:14:59.105Z,1.95
2022-08-09T15:17:25.720Z,1.70
2022-08-09T15:19:59.109Z,0.93
2022-08-09T15:22:26.514Z,0.90
2022-08-09T15:24:53.816Z,0.90
2022-08-09T15:27:21.138Z,0.80
2022-08-09T15:30:55.390Z,0.60
2022-08-09T15:32:35.000Z,0.80
2022-08-09T15:35:01.808Z,1.10
2022-08-09T15:37:37.476Z,0.80
2022-08-09T15:40:25.254Z,0.95
2022-08-09T15:42:58.376Z,0.80
2022-08-09T15:45:29.257Z,0.43
2022-08-09T15:48:05.634Z,0.73
2022-08-09T15:50:39.222Z,0.50
2022-08-09T15:53:18.922Z,1.00
2022-08-09T15:56:21.045Z,0.77
2022-08-09T15:58:44.872Z,0.98
2022-08-09T16:01:13.309Z,0.40
2022-08-09T16:03:41.489Z,0.45
2022-08-09T16:06:27.255Z,0.40
2022-08-09T16:08:55.972Z,0.70
2022-08-09T16:11:22.622Z,0.40
2022-08-09T16:14:05.301Z,0.75
2022-08-09T16:16:37.118Z,0.52
2022-08-09T16:19:06.125Z,0.75
2022-08-09T16:21:34.982Z,1.02
2022-08-09T16:24:03.064Z,0.77
2022-08-09T16:26:33.544Z,2.28
2022-08-09T16:29:13.224Z,1.27
2022-08-09T16:32:19.940Z,1.77
2022-08-09T16:34:29.553Z,1.08
2022-08-09T16:37:16.132Z,0.45
2022-08-09T16:39:48.143Z,0.40
2022-08-09T16:42:29.164Z,0.47
2022-08-09T16:44:56.030Z,0.57
2022-08-09T16:48:40.919Z,0.45
2022-08-09T16:50:31.851Z,0.30
2022-08-09T16:52:56.140Z,0.63
2022-08-09T16:55:23.358Z,0.50
2022-08-09T16:58:10.096Z,0.38
2022-08-09T17:00:36.743Z,0.22
2022-08-09T17:03:05.145Z,0.40
2022-08-09T17:06:07.518Z,0.50
2022-08-09T17:08:42.775Z,0.55
2022-08-09T17:11:07.156Z,0.60
2022-08-09T17:13:34.404Z,0.38
2022-08-09T17:16:02.429Z,0.38
2022-08-09T17:18:29.888Z,0.40
2022-08-09T17:20:57.041Z,0.30
2022-08-09T17:23:23.826Z,0.50
2022-08-09T17:26:10.396Z,0.40
2022-08-09T17:28:39.048Z,0.30
2022-08-09T17:31:05.665Z,0.30
2022-08-09T17:33:35.866Z,0.47
2022-08-09T17:36:04.851Z,0.60
2022-08-09T17:38:37.113Z,0.57
2022-08-09T17:41:06.350Z,0.22
2022-08-09T17:43:37.381Z,0.40
2022-08-09T17:46:07.628Z,0.30
2022-08-09T17:48:38.778Z,0.30
2022-08-09T17:51:18.113Z,0.55
2022-08-09T17:53:52.228Z,0.32
2022-08-09T17:56:26.625Z,0.40
2022-08-09T18:01:24.248Z,0.30
2022-08-09T18:03:54.777Z,0.30
2022-08-09T18:06:31.727Z,0.30
2022-08-09T18:09:03.119Z,0.45
2022-08-09T18:11:32.132Z,0.40
2022-08-09T18:14:21.885Z,0.30
2022-08-09T18:16:49.794Z,0.30
2022-08-09T18:20:56.680Z,0.30
2022-08-09T18:22:03.930Z,0.40
2022-08-09T18:24:31.116Z,0.57
2022-08-09T18:26:57.890Z,0.30
2022-08-09T18:30:38.840Z,0.57
2022-08-09T18:32:14.353Z,0.60
2022-08-09T18:34:45.701Z,0.43
2022-08-09T18:37:48.069Z,0.60
2022-08-09T18:40:01.719Z,0.45
2022-08-09T18:42:29.430Z,0.32
2022-08-09T18:44:57.087Z,0.40
2022-08-09T18:47:27.711Z,0.30
2022-08-09T18:50:03.300Z,0.40
2022-08-09T18:52:35.544Z,0.47
2022-08-09T18:55:03.708Z,0.73
2022-08-09T18:57:38.538Z,0.30
2022-08-09T19:00:11.491Z,0.30
2022-08-09T19:02:44.050Z,0.30
2022-08-09T19:05:19.994Z,0.60
2022-08-09T19:08:04.613Z,0.60
2022-08-09T19:10:39.370Z,0.50
2022-08-09T19:13:20.149Z,0.60
2022-08-09T19:15:51.017Z,0.43
2022-08-09T19:18:37.408Z,0.57
2022-08-09T19:21:08.918Z,0.55
2022-08-09T19:24:31.981Z,0.55
2022-08-09T19:26:29.591Z,0.40
2022-08-09T19:31:30.546Z,0.50
2022-08-09T19:34:21.302Z,0.45
2022-08-09T19:36:57.448Z,0.47
2022-08-09T19:39:43.028Z,0.45
2022-08-09T19:42:14.728Z,0.65
2022-08-09T19:44:49.559Z,1.25
2022-08-09T19:47:23.258Z,0.80
2022-08-09T19:50:07.564Z,0.80
2022-08-09T19:52:49.804Z,1.15
2022-08-09T19:55:30.642Z,0.90
2022-08-09T19:58:16.081Z,0.47
2022-08-09T20:00:46.189Z,0.63
2022-08-09T20:04:17.987Z,0.40
2022-08-09T20:06:03.346Z,0.55
2022-08-09T20:08:34.876Z,0.77
2022-08-09T20:11:09.578Z,0.50
2022-08-09T20:13:37.924Z,0.45
2022-08-09T20:16:37.128Z,0.50
2022-08-09T20:19:42.438Z,1.27
2022-08-09T20:21:40.636Z,1.10
2022-08-09T20:24:29.822Z,0.77
2022-08-09T20:27:01.430Z,0.80
2022-08-09T20:29:32.612Z,0.75
2022-08-09T20:32:28.793Z,0.47
2022-08-09T20:34:51.544Z,0.43
2022-08-09T20:37:21.467Z,0.50
2022-08-09T20:40:16.120Z,1.10
2022-08-09T20:42:35.870Z,0.70
2022-08-09T20:46:00.802Z,0.85
2022-08-09T20:47:51.669Z,0.55
2022-08-09T20:50:47.859Z,0.60
2022-08-09T20:53:04.594Z,0.90
2022-08-09T20:55:47.173Z,0.68
2022-08-09T20:58:28.520Z,0.57
2022-08-09T21:01:02.460Z,0.22
2022-08-09T21:05:49.643Z,0.32
2022-08-09T21:06:35.016Z,0.45
2022-08-09T21:09:02.448Z,0.52
2022-08-09T21:14:16.719Z,0.57
2022-08-09T21:16:44.149Z,0.43
2022-08-09T21:20:18.050Z,0.70
2022-08-09T21:21:59.037Z,0.73
2022-08-09T21:24:28.456Z,0.50
2022-08-09T21:26:55.720Z,0.55
2022-08-09T21:29:22.864Z,0.50
2022-08-09T21:31:49.841Z,0.40
2022-08-09T21:34:28.808Z,0.50
2022-08-09T21:36:56.448Z,0.85
2022-08-09T21:39:27.723Z,0.80
2022-08-09T21:42:03.937Z,0.95
2022-08-09T21:44:35.318Z,0.63
2022-08-09T21:47:05.903Z,0.68
2022-08-09T21:49:39.858Z,0.90
2022-08-09T21:52:17.179Z,0.98
2022-08-09T21:54:59.452Z,0.60
2022-08-09T21:57:38.438Z,0.80
2022-08-09T22:00:26.033Z,0.93
2022-08-09T22:02:58.876Z,1.08
2022-08-09T22:05:36.819Z,1.00
2022-08-09T22:08:11.893Z,1.40
2022-08-09T22:11:00.877Z,0.90
2022-08-09T22:13:34.108Z,1.13
2022-08-09T22:16:03.693Z,0.85
2022-08-09T22:18:32.771Z,1.20
2022-08-09T22:21:00.200Z,0.95
2022-08-09T22:23:27.065Z,1.02
2022-08-09T22:26:05.977Z,0.90
2022-08-09T22:28:47.254Z,0.88
2022-08-09T22:31:20.659Z,1.08
2022-08-09T22:33:48.872Z,1.20
2022-08-09T22:36:21.602Z,0.80
2022-08-09T22:38:48.795Z,0.80
2022-08-09T22:41:15.261Z,0.73
2022-08-09T22:44:01.755Z,0.70
2022-08-09T22:48:17.750Z,0.90
2022-08-09T22:49:16.071Z,0.57
2022-08-09T22:51:49.210Z,0.80
2022-08-09T22:54:17.217Z,0.75
2022-08-09T22:56:48.095Z,0.68
2022-08-09T22:59:56.207Z,0.60
2022-08-09T23:02:07.658Z,0.60
2022-08-09T23:04:34.593Z,0.57
2022-08-09T23:08:23.173Z,0.57
2022-08-09T23:10:10.464Z,0.40
2022-08-09T23:12:37.074Z,0.40
2022-08-09T23:15:04.833Z,0.60
2022-08-09T23:17:31.311Z,0.77
2022-08-09T23:20:00.736Z,0.63
2022-08-09T23:22:34.295Z,0.50
2022-08-09T23:25:04.477Z,0.60
2022-08-09T23:27:31.188Z,1.17
2022-08-09T23:29:57.600Z,0.80
2022-08-09T23:32:24.066Z,1.20
2022-08-09T23:34:50.487Z,0.60
2022-08-09T23:37:17.115Z,0.47
2022-08-09T23:39:48.282Z,0.43
2022-08-09T23:42:14.914Z,0.60
2022-08-09T23:44:41.708Z,0.70
2022-08-09T23:47:08.148Z,0.60
2022-08-09T23:49:34.579Z,0.47
2022-08-09T23:52:01.051Z,0.60
2022-08-09T23:54:27.604Z,0.70
2022-08-09T23:56:56.107Z,0.80
2022-08-09T23:59:23.712Z,0.70
